East Shoals, Indiana
Current Conditions -  °F | °C
As of 4:35 AM on Saturday 01 Nov 2014 (Local Time) from KDCY Reporting Station
Overcast Overcast  
Wind Chill: 24°   Ceiling: 6000
Heat Index: 34°   Visibility: 10mi
Dew Point: 28°   Wind: 15mph
Humidity: 78%   Direction: 350°N
Pressure: 30.27"   Gusts: 21mph
Location:  38.6262°N, 86.7615°W
Report Text: KDCY 010935Z AUTO 35013G18KT 10SM SCT047 OVC060 01/M02 A3027 RMK AO2 T00111023
Loading
Personal Weather Stations






























Interactive Weather Map New forecast layout! Learn more

10-Day Weather Forecast

Advertisements
Track Severe Weather on mobile